sensor_id;sensor_type;location;lat;lon;timestamp;P1;durP1;ratioP1;P2;durP2;ratioP2
77168;SDS011;66281;45.114;20.730;2023-02-12T00:04:40;65.05;;;31.10;;
77168;SDS011;66281;45.114;20.730;2023-02-12T00:14:40;65.88;;;31.35;;
77168;SDS011;66281;45.114;20.730;2023-02-12T00:24:41;65.20;;;30.38;;
77168;SDS011;66281;45.114;20.730;2023-02-12T00:34:41;61.95;;;31.35;;
77168;SDS011;66281;45.114;20.730;2023-02-12T00:44:42;66.23;;;29.63;;
77168;SDS011;66281;45.114;20.730;2023-02-12T00:54:42;58.83;;;31.43;;
77168;SDS011;66281;45.114;20.730;2023-02-12T01:04:43;65.90;;;33.42;;
77168;SDS011;66281;45.114;20.730;2023-02-12T01:14:43;60.23;;;32.00;;
77168;SDS011;66281;45.114;20.730;2023-02-12T01:24:44;71.13;;;34.60;;
77168;SDS011;66281;45.114;20.730;2023-02-12T01:34:45;71.07;;;32.93;;
77168;SDS011;66281;45.114;20.730;2023-02-12T01:55:13;66.03;;;31.38;;
77168;SDS011;66281;45.114;20.730;2023-02-12T02:05:14;64.33;;;30.00;;
77168;SDS011;66281;45.114;20.730;2023-02-12T02:15:20;51.07;;;26.30;;
77168;SDS011;66281;45.114;20.730;2023-02-12T02:35:31;39.73;;;18.90;;
77168;SDS011;66281;45.114;20.730;2023-02-12T02:45:47;32.75;;;16.77;;
77168;SDS011;66281;45.114;20.730;2023-02-12T02:55:52;39.97;;;17.57;;
77168;SDS011;66281;45.114;20.730;2023-02-12T03:05:54;34.47;;;16.57;;
77168;SDS011;66281;45.114;20.730;2023-02-12T03:16:02;45.60;;;22.52;;
77168;SDS011;66281;45.114;20.730;2023-02-12T03:26:14;37.23;;;17.77;;
77168;SDS011;66281;45.114;20.730;2023-02-12T03:46:49;35.63;;;16.40;;
77168;SDS011;66281;45.114;20.730;2023-02-12T03:57:07;37.60;;;17.05;;
77168;SDS011;66281;45.114;20.730;2023-02-12T04:07:10;30.13;;;15.97;;
77168;SDS011;66281;45.114;20.730;2023-02-12T04:37:42;36.47;;;17.33;;
77168;SDS011;66281;45.114;20.730;2023-02-12T04:47:48;41.00;;;17.17;;
77168;SDS011;66281;45.114;20.730;2023-02-12T04:57:49;37.92;;;16.98;;
77168;SDS011;66281;45.114;20.730;2023-02-12T05:07:49;46.75;;;20.27;;
77168;SDS011;66281;45.114;20.730;2023-02-12T05:17:50;39.35;;;20.10;;
77168;SDS011;66281;45.114;20.730;2023-02-12T05:27:50;39.88;;;20.60;;
77168;SDS011;66281;45.114;20.730;2023-02-12T05:37:51;37.90;;;18.67;;
77168;SDS011;66281;45.114;20.730;2023-02-12T05:47:52;35.30;;;17.08;;
77168;SDS011;66281;45.114;20.730;2023-02-12T05:57:55;42.38;;;19.90;;
77168;SDS011;66281;45.114;20.730;2023-02-12T06:07:56;63.20;;;26.07;;
77168;SDS011;66281;45.114;20.730;2023-02-12T06:17:56;99.82;;;39.85;;
77168;SDS011;66281;45.114;20.730;2023-02-12T06:27:57;59.15;;;25.88;;
77168;SDS011;66281;45.114;20.730;2023-02-12T06:37:57;53.35;;;24.92;;
77168;SDS011;66281;45.114;20.730;2023-02-12T06:47:57;45.43;;;21.43;;
77168;SDS011;66281;45.114;20.730;2023-02-12T06:57:58;52.20;;;27.37;;
77168;SDS011;66281;45.114;20.730;2023-02-12T07:07:58;53.40;;;27.83;;
77168;SDS011;66281;45.114;20.730;2023-02-12T07:17:59;51.75;;;27.27;;
77168;SDS011;66281;45.114;20.730;2023-02-12T07:27:59;44.22;;;24.90;;
77168;SDS011;66281;45.114;20.730;2023-02-12T07:38:00;51.35;;;25.05;;
77168;SDS011;66281;45.114;20.730;2023-02-12T07:48:00;52.53;;;25.93;;
77168;SDS011;66281;45.114;20.730;2023-02-12T07:58:01;46.33;;;22.58;;
77168;SDS011;66281;45.114;20.730;2023-02-12T08:08:01;70.45;;;31.80;;
77168;SDS011;66281;45.114;20.730;2023-02-12T08:18:02;84.25;;;37.15;;
77168;SDS011;66281;45.114;20.730;2023-02-12T08:28:02;78.70;;;33.67;;
77168;SDS011;66281;45.114;20.730;2023-02-12T08:38:03;61.50;;;30.63;;
77168;SDS011;66281;45.114;20.730;2023-02-12T08:48:03;59.63;;;27.10;;
77168;SDS011;66281;45.114;20.730;2023-02-12T08:58:04;68.05;;;29.50;;
77168;SDS011;66281;45.114;20.730;2023-02-12T09:08:04;55.35;;;26.80;;
77168;SDS011;66281;45.114;20.730;2023-02-12T09:18:06;81.93;;;33.60;;
77168;SDS011;66281;45.114;20.730;2023-02-12T09:28:06;75.63;;;35.53;;
77168;SDS011;66281;45.114;20.730;2023-02-12T09:38:09;50.45;;;27.75;;
77168;SDS011;66281;45.114;20.730;2023-02-12T09:58:51;75.30;;;33.10;;
77168;SDS011;66281;45.114;20.730;2023-02-12T10:29:19;45.00;;;22.38;;
77168;SDS011;66281;45.114;20.730;2023-02-12T10:39:22;63.07;;;30.13;;
77168;SDS011;66281;45.114;20.730;2023-02-12T10:49:24;54.17;;;27.97;;
77168;SDS011;66281;45.114;20.730;2023-02-12T10:59:24;48.90;;;22.93;;
77168;SDS011;66281;45.114;20.730;2023-02-12T11:09:29;58.90;;;30.00;;
77168;SDS011;66281;45.114;20.730;2023-02-12T11:19:33;141.17;;;49.17;;
77168;SDS011;66281;45.114;20.730;2023-02-12T11:29:33;43.87;;;23.77;;
77168;SDS011;66281;45.114;20.730;2023-02-12T11:39:34;52.08;;;27.17;;
77168;SDS011;66281;45.114;20.730;2023-02-12T11:49:38;47.53;;;23.50;;
77168;SDS011;66281;45.114;20.730;2023-02-12T11:59:41;41.03;;;20.27;;
77168;SDS011;66281;45.114;20.730;2023-02-12T12:09:45;49.33;;;24.40;;
77168;SDS011;66281;45.114;20.730;2023-02-12T13:01:14;120.77;;;46.23;;
77168;SDS011;66281;45.114;20.730;2023-02-12T13:31:48;50.03;;;27.13;;
77168;SDS011;66281;45.114;20.730;2023-02-12T13:52:22;56.65;;;24.05;;
77168;SDS011;66281;45.114;20.730;2023-02-12T14:12:35;44.35;;;22.38;;
77168;SDS011;66281;45.114;20.730;2023-02-12T14:42:52;45.77;;;22.07;;
77168;SDS011;66281;45.114;20.730;2023-02-12T14:52:57;44.15;;;21.63;;
77168;SDS011;66281;45.114;20.730;2023-02-12T15:23:32;50.83;;;23.33;;
77168;SDS011;66281;45.114;20.730;2023-02-12T15:33:36;67.73;;;31.53;;
77168;SDS011;66281;45.114;20.730;2023-02-12T15:43:40;84.33;;;37.37;;
77168;SDS011;66281;45.114;20.730;2023-02-12T15:53:40;74.70;;;35.63;;
77168;SDS011;66281;45.114;20.730;2023-02-12T16:03:41;64.40;;;28.83;;
77168;SDS011;66281;45.114;20.730;2023-02-12T16:13:43;75.10;;;33.40;;
77168;SDS011;66281;45.114;20.730;2023-02-12T16:23:45;86.60;;;38.53;;
77168;SDS011;66281;45.114;20.730;2023-02-12T16:33:47;109.00;;;41.33;;
77168;SDS011;66281;45.114;20.730;2023-02-12T16:43:50;91.33;;;36.77;;
77168;SDS011;66281;45.114;20.730;2023-02-12T17:04:30;102.20;;;45.90;;
77168;SDS011;66281;45.114;20.730;2023-02-12T17:14:30;106.83;;;46.30;;
77168;SDS011;66281;45.114;20.730;2023-02-12T17:24:31;100.30;;;39.42;;
77168;SDS011;66281;45.114;20.730;2023-02-12T17:34:32;82.03;;;35.50;;
77168;SDS011;66281;45.114;20.730;2023-02-12T17:44:32;522.28;;;221.30;;
77168;SDS011;66281;45.114;20.730;2023-02-12T17:54:33;411.77;;;133.90;;
77168;SDS011;66281;45.114;20.730;2023-02-12T18:04:34;350.47;;;123.73;;
77168;SDS011;66281;45.114;20.730;2023-02-12T18:14:35;105.43;;;39.85;;
77168;SDS011;66281;45.114;20.730;2023-02-12T18:24:35;93.00;;;34.92;;
77168;SDS011;66281;45.114;20.730;2023-02-12T18:34:36;172.20;;;50.10;;
77168;SDS011;66281;45.114;20.730;2023-02-12T18:44:36;185.23;;;57.77;;
77168;SDS011;66281;45.114;20.730;2023-02-12T18:54:37;113.13;;;37.80;;
77168;SDS011;66281;45.114;20.730;2023-02-12T19:04:37;128.85;;;44.80;;
77168;SDS011;66281;45.114;20.730;2023-02-12T19:14:38;93.75;;;37.40;;
77168;SDS011;66281;45.114;20.730;2023-02-12T19:24:38;74.40;;;31.48;;
77168;SDS011;66281;45.114;20.730;2023-02-12T19:34:39;120.40;;;39.80;;
77168;SDS011;66281;45.114;20.730;2023-02-12T19:44:39;149.52;;;49.25;;
77168;SDS011;66281;45.114;20.730;2023-02-12T19:54:42;93.93;;;36.63;;
77168;SDS011;66281;45.114;20.730;2023-02-12T20:04:43;134.57;;;47.90;;
77168;SDS011;66281;45.114;20.730;2023-02-12T20:14:44;113.10;;;43.03;;
77168;SDS011;66281;45.114;20.730;2023-02-12T20:24:44;93.97;;;38.08;;
77168;SDS011;66281;45.114;20.730;2023-02-12T20:34:45;77.30;;;32.17;;
77168;SDS011;66281;45.114;20.730;2023-02-12T20:44:45;64.37;;;32.50;;
77168;SDS011;66281;45.114;20.730;2023-02-12T20:54:46;61.00;;;27.48;;
77168;SDS011;66281;45.114;20.730;2023-02-12T21:04:48;95.57;;;38.20;;
77168;SDS011;66281;45.114;20.730;2023-02-12T21:14:49;72.60;;;32.90;;
77168;SDS011;66281;45.114;20.730;2023-02-12T21:24:50;108.50;;;43.92;;
77168;SDS011;66281;45.114;20.730;2023-02-12T21:34:51;131.52;;;53.55;;
77168;SDS011;66281;45.114;20.730;2023-02-12T21:44:51;187.33;;;71.17;;
77168;SDS011;66281;45.114;20.730;2023-02-12T21:54:52;138.98;;;52.28;;
77168;SDS011;66281;45.114;20.730;2023-02-12T22:04:53;88.77;;;37.97;;
77168;SDS011;66281;45.114;20.730;2023-02-12T22:14:53;77.20;;;33.33;;
77168;SDS011;66281;45.114;20.730;2023-02-12T22:24:54;141.80;;;51.88;;
77168;SDS011;66281;45.114;20.730;2023-02-12T22:34:54;143.15;;;55.55;;
77168;SDS011;66281;45.114;20.730;2023-02-12T22:44:55;154.23;;;61.00;;
77168;SDS011;66281;45.114;20.730;2023-02-12T22:54:55;195.83;;;78.50;;
77168;SDS011;66281;45.114;20.730;2023-02-12T23:04:56;178.95;;;74.25;;
77168;SDS011;66281;45.114;20.730;2023-02-12T23:14:56;185.32;;;74.32;;
77168;SDS011;66281;45.114;20.730;2023-02-12T23:24:57;181.02;;;74.78;;
77168;SDS011;66281;45.114;20.730;2023-02-12T23:34:57;162.82;;;66.40;;
77168;SDS011;66281;45.114;20.730;2023-02-12T23:44:57;144.73;;;59.85;;
77168;SDS011;66281;45.114;20.730;2023-02-12T23:54:58;136.10;;;53.73;;
